Time;durP1;ratioP1;P1;durP2;ratioP2;P2;SDS_P1;SDS_P2;PMS_P1;PMS_P2;Temp;Humidity;BMP_temperature;BMP_pressure;BME280_temperature;BME280_humidity;BME280_pressure;Samples;Min_cycle;Max_cycle;Signal;HPM_P1;HPM_P2
2022/04/14 00:02:00;;;;;;;14.80;7.97;;;;;;;19.33;27.25;101045.63;5030512;28;20144;-73
2022/04/14 00:04:27;;;;;;;15.75;8.55;;;;;;;19.39;27.20;101052.13;5030931;28;20446;-73
2022/04/14 00:06:53;;;;;;;18.70;7.57;;;;;;;19.27;27.20;101049.19;5030887;28;20128;-72
2022/04/14 00:09:20;;;;;;;15.55;8.02;;;;;;;19.37;27.18;101051.47;5030981;28;20136;-72
2022/04/14 00:11:46;;;;;;;13.80;8.18;;;;;;;19.35;27.32;101040.00;5029740;28;20144;-72
2022/04/14 00:14:13;;;;;;;11.90;7.90;;;;;;;19.39;27.31;101039.34;5030714;28;20133;-73
2022/04/14 00:16:39;;;;;;;16.70;8.38;;;;;;;19.16;27.71;101050.66;5046655;28;20052;-73
2022/04/14 00:19:07;;;;;;;15.90;7.80;;;;;;;19.23;27.44;101050.66;5049992;28;20056;-73
2022/04/14 00:21:34;;;;;;;11.60;7.78;;;;;;;19.22;27.52;101049.00;5049617;28;20384;-73
2022/04/14 00:24:00;;;;;;;19.65;8.02;;;;;;;19.35;27.66;101042.72;5046662;28;20049;-73
2022/04/14 00:26:27;;;;;;;13.00;7.60;;;;;;;19.13;27.65;101048.34;5048357;28;20144;-72
2022/04/14 00:28:53;;;;;;;14.85;7.53;;;;;;;19.22;27.24;101046.28;5050014;28;20493;-73
2022/04/14 00:31:19;;;;;;;15.38;7.65;;;;;;;19.09;27.48;101054.41;5050316;28;20073;-73
2022/04/14 00:33:46;;;;;;;15.93;8.07;;;;;;;19.08;27.73;101052.75;5042605;28;20049;-73
2022/04/14 00:36:13;;;;;;;17.70;8.15;;;;;;;19.15;27.33;101050.88;5050886;28;20075;-73
2022/04/14 00:38:39;;;;;;;20.13;8.80;;;;;;;19.11;27.22;101044.19;5051211;28;20072;-73
2022/04/14 00:41:05;;;;;;;15.68;8.88;;;;;;;18.95;27.81;101051.69;5050203;28;20064;-73
2022/04/14 00:43:34;;;;;;;16.88;9.55;;;;;;;18.90;28.01;101051.47;5050350;28;20490;-73
2022/04/14 00:46:02;;;;;;;18.13;8.52;;;;;;;18.76;27.99;101047.88;5049677;28;20128;-73
2022/04/14 00:48:30;;;;;;;17.77;8.05;;;;;;;18.69;28.11;101052.47;5050801;28;20045;-73
2022/04/14 00:50:57;;;;;;;15.27;7.95;;;;;;;18.71;27.92;101049.53;5032380;28;20538;-72
2022/04/14 00:53:24;;;;;;;15.38;7.43;;;;;;;18.65;28.52;101055.78;5030375;28;20076;-72
2022/04/14 00:55:51;;;;;;;19.27;7.85;;;;;;;18.64;28.31;101054.13;5030664;28;20073;-73
2022/04/14 00:58:18;;;;;;;14.48;7.13;;;;;;;18.63;28.31;101055.16;5029855;28;20140;-73
2022/04/14 01:00:44;;;;;;;15.02;8.23;;;;;;;18.52;28.36;101049.28;5029971;28;20132;-73
2022/04/14 01:03:12;;;;;;;12.95;7.47;;;;;;;18.43;28.21;101047.78;5031096;28;20038;-73
2022/04/14 01:09:26;;;;;;;17.42;8.38;;;;;;;18.49;28.56;101049.69;5028360;28;20055;-72
2022/04/14 01:11:54;;;;;;;19.27;8.13;;;;;;;18.40;28.61;101058.22;5024455;28;20053;-73
2022/04/14 01:14:31;;;;;;;14.30;7.68;;;;;;;18.37;28.64;101054.03;5042354;28;20128;-73
2022/04/14 01:17:07;;;;;;;17.80;7.95;;;;;;;18.45;28.85;101056.59;5029378;28;20072;-73
2022/04/14 01:19:34;;;;;;;11.60;7.40;;;;;;;18.49;28.59;101057.00;5027410;28;20056;-73
2022/04/14 01:22:12;;;;;;;14.35;7.97;;;;;;;18.41;28.77;101052.59;5027933;28;20103;-73
2022/04/14 01:24:41;;;;;;;17.30;8.45;;;;;;;18.29;28.74;101048.78;5028686;28;20132;-73
2022/04/14 01:27:08;;;;;;;22.75;8.90;;;;;;;18.41;28.74;101047.19;5029635;28;20537;-71
2022/04/14 01:29:35;;;;;;;19.63;8.25;;;;;;;18.34;29.11;101049.00;5028290;28;20136;-71
2022/04/14 01:32:02;;;;;;;20.30;8.57;;;;;;;18.24;28.94;101049.41;5030647;28;20045;-72
2022/04/14 01:34:32;;;;;;;18.23;8.32;;;;;;;18.30;28.95;101054.00;5027769;28;20046;-71
2022/04/14 01:37:00;;;;;;;16.00;8.07;;;;;;;18.27;28.68;101051.72;5028793;28;20453;-72
2022/04/14 01:39:27;;;;;;;20.15;8.38;;;;;;;18.30;28.61;101061.31;5029133;28;20045;-71
2022/04/14 01:41:53;;;;;;;15.75;7.97;;;;;;;18.26;29.36;101055.47;5030443;28;20446;-72
2022/04/14 01:44:20;;;;;;;16.10;7.82;;;;;;;18.24;29.28;101049.41;5028937;28;20047;-71
2022/04/14 01:46:46;;;;;;;15.13;8.13;;;;;;;18.22;29.18;101050.66;5030172;28;20053;-71
2022/04/14 01:49:13;;;;;;;16.35;8.48;;;;;;;18.13;29.54;101062.69;5034176;28;20076;-71
2022/04/14 01:51:39;;;;;;;14.27;8.43;;;;;;;18.15;29.71;101063.34;5049464;28;20128;-71
2022/04/14 01:54:06;;;;;;;16.48;8.23;;;;;;;18.23;29.31;101066.72;5049434;28;20529;-71
2022/04/14 01:56:33;;;;;;;17.38;8.95;;;;;;;18.19;29.48;101061.91;5053179;28;20128;-71
2022/04/14 01:58:59;;;;;;;14.48;8.27;;;;;;;18.13;29.51;101062.69;5053264;28;20071;-72
2022/04/14 02:01:26;;;;;;;17.02;8.30;;;;;;;18.18;29.52;101062.97;5054431;28;20067;-72
2022/04/14 02:03:54;;;;;;;25.27;9.55;;;;;;;18.18;29.30;101062.97;5054266;28;20048;-72
2022/04/14 02:06:20;;;;;;;16.98;8.70;;;;;;;18.07;29.75;101061.63;5052794;28;20132;-71
2022/04/14 02:08:47;;;;;;;16.58;8.98;;;;;;;18.09;29.42;101065.78;5053932;28;20065;-71
2022/04/14 02:11:13;;;;;;;16.92;8.82;;;;;;;18.05;29.53;101059.09;5053663;28;20127;-71
2022/04/14 02:13:47;;;;;;;15.88;8.38;;;;;;;18.12;29.85;101069.16;5057748;28;20125;-73
2022/04/14 02:16:13;;;;;;;14.90;8.48;;;;;;;17.96;30.17;101059.47;5050598;28;20148;-72
2022/04/14 02:18:40;;;;;;;20.10;8.82;;;;;;;18.08;30.10;101058.69;5043435;28;20124;-72
2022/04/14 02:21:06;;;;;;;19.70;8.85;;;;;;;18.07;29.94;101062.47;5041887;28;20049;-72
2022/04/14 02:23:33;;;;;;;18.85;9.00;;;;;;;18.07;30.11;101056.19;5033435;28;20046;-72
2022/04/14 02:25:59;;;;;;;20.30;9.32;;;;;;;18.07;30.26;101067.06;5048363;28;20144;-72
2022/04/14 02:28:26;;;;;;;17.83;9.00;;;;;;;18.07;30.26;101064.34;5053800;28;20106;-72
2022/04/14 02:30:52;;;;;;;23.52;9.82;;;;;;;18.06;30.21;101077.09;5052322;28;20068;-72
2022/04/14 02:33:19;;;;;;;23.67;9.88;;;;;;;18.03;30.63;101066.63;5042485;28;20045;-72
2022/04/14 02:35:46;;;;;;;16.23;9.32;;;;;;;18.13;30.43;101078.97;5031419;28;20516;-72
2022/04/14 02:38:13;;;;;;;24.15;9.40;;;;;;;18.03;30.59;101092.91;5033496;28;20061;-72
2022/04/14 02:40:39;;;;;;;18.02;9.15;;;;;;;17.91;31.13;101086.38;5032357;28;20464;-72
2022/04/14 02:43:06;;;;;;;22.88;9.65;;;;;;;17.88;31.31;101089.50;5033033;28;20128;-73
2022/04/14 02:45:32;;;;;;;14.10;8.60;;;;;;;17.93;30.73;101096.00;5033135;28;20133;-72
2022/04/14 02:47:59;;;;;;;18.42;9.25;;;;;;;17.89;31.08;101091.16;5033139;28;20107;-73
2022/04/14 02:50:25;;;;;;;21.85;9.40;;;;;;;17.93;31.04;101098.72;5039073;28;20508;-72
2022/04/14 02:52:54;;;;;;;18.15;9.05;;;;;;;17.88;31.15;101093.03;5051303;28;20548;-73
2022/04/14 02:55:21;;;;;;;19.08;8.82;;;;;;;17.87;31.09;101099.50;5051948;28;20127;-72
2022/04/14 02:57:48;;;;;;;17.02;9.35;;;;;;;17.91;30.91;101095.34;5051919;28;20052;-72
2022/04/14 03:00:16;;;;;;;18.33;9.32;;;;;;;17.81;31.04;101100.31;5051983;28;20068;-73
2022/04/14 03:02:42;;;;;;;20.30;11.27;;;;;;;17.65;31.28;101095.19;5052280;28;20073;-73
2022/04/14 03:05:10;;;;;;;21.08;10.10;;;;;;;17.58;31.45;101100.59;5051713;28;20109;-72
2022/04/14 03:07:36;;;;;;;16.50;9.50;;;;;;;17.60;31.23;101109.34;5051807;28;20585;-73
2022/04/14 03:10:04;;;;;;;17.33;9.00;;;;;;;17.10;32.01;101114.75;5051324;28;20065;-73
2022/04/14 03:12:46;;;;;;;17.40;8.60;;;;;;;17.45;31.55;101117.59;5052844;28;20049;-73
2022/04/14 03:15:13;;;;;;;14.95;8.70;;;;;;;17.34;31.14;101109.97;5051922;28;20069;-72
2022/04/14 03:17:40;;;;;;;15.52;8.13;;;;;;;17.20;31.35;101111.72;5050496;28;20127;-72
2022/04/14 03:20:07;;;;;;;15.55;8.07;;;;;;;17.27;31.38;101112.59;5052676;28;20098;-72
2022/04/14 03:22:34;;;;;;;14.73;7.55;;;;;;;17.14;31.65;101112.47;5052420;28;20124;-73
2022/04/14 03:25:06;;;;;;;19.50;8.57;;;;;;;17.23;31.40;101116.72;5041689;28;20041;-72
2022/04/14 03:27:33;;;;;;;16.50;9.93;;;;;;;17.00;31.86;101116.09;5032823;28;20072;-72
2022/04/14 03:29:59;;;;;;;18.20;10.43;;;;;;;16.48;32.57;101126.09;5030674;28;20486;-72
2022/04/14 03:32:26;;;;;;;23.77;11.45;;;;;;;16.35;33.06;101125.94;5032015;28;20144;-72
2022/04/14 03:34:52;;;;;;;19.95;10.98;;;;;;;16.14;33.64;101130.25;5031468;28;20424;-72
2022/04/14 03:37:19;;;;;;;21.35;10.93;;;;;;;15.63;34.84;101126.56;5030926;28;20080;-72
2022/04/14 03:39:46;;;;;;;19.50;10.82;;;;;;;16.08;34.34;101128.28;5031695;28;20132;-72
2022/04/14 03:42:13;;;;;;;23.55;11.15;;;;;;;15.84;35.24;101123.97;5027765;28;20468;-72
2022/04/14 03:44:39;;;;;;;19.73;11.05;;;;;;;15.60;35.74;101124.19;5029715;28;20080;-73
2022/04/14 03:47:06;;;;;;;24.02;11.77;;;;;;;15.86;35.47;101123.78;5031531;28;20055;-73
2022/04/14 03:49:33;;;;;;;20.85;10.60;;;;;;;15.72;35.71;101133.56;5031788;28;20120;-73
2022/04/14 03:51:59;;;;;;;19.85;10.55;;;;;;;15.84;35.75;101128.53;5032348;28;20129;-73
2022/04/14 03:54:25;;;;;;;20.77;11.13;;;;;;;16.11;35.46;101127.91;5031373;28;20136;-73
2022/04/14 03:56:52;;;;;;;24.13;11.20;;;;;;;16.02;35.93;101125.47;5031061;28;20047;-73
2022/04/14 03:59:18;;;;;;;18.02;10.48;;;;;;;15.92;36.25;101123.06;5031681;28;20136;-73
2022/04/14 04:01:45;;;;;;;20.92;11.25;;;;;;;15.81;36.49;101128.91;5037324;28;20132;-73
2022/04/14 04:04:11;;;;;;;20.45;11.43;;;;;;;15.78;36.57;101123.88;5041983;28;20078;-73
2022/04/14 04:06:38;;;;;;;23.80;10.48;;;;;;;15.16;37.94;101125.75;5042176;28;20103;-73
2022/04/14 04:09:04;;;;;;;19.45;9.82;;;;;;;15.46;37.65;101137.47;5031487;28;20126;-73
2022/04/14 04:11:31;;;;;;;18.00;9.95;;;;;;;15.56;37.40;101131.81;5050660;28;20127;-73
2022/04/14 04:13:58;;;;;;;18.48;10.50;;;;;;;15.56;37.68;101145.34;5051387;28;20136;-73
2022/04/14 04:16:24;;;;;;;18.90;9.73;;;;;;;15.61;37.75;101145.66;5050125;28;20103;-72
2022/04/14 04:18:51;;;;;;;15.35;9.63;;;;;;;15.47;38.08;101146.47;5039088;28;20046;-73
2022/04/14 04:21:17;;;;;;;19.67;9.23;;;;;;;15.42;38.01;101156.97;5029856;28;20132;-72
2022/04/14 04:23:44;;;;;;;25.50;9.73;;;;;;;15.73;37.70;101156.06;5030083;28;20041;-73
2022/04/14 04:26:10;;;;;;;18.48;9.05;;;;;;;15.75;37.98;101164.84;5029841;28;20132;-72
2022/04/14 04:28:37;;;;;;;15.88;9.07;;;;;;;15.84;37.60;101163.72;5031593;28;20453;-73
2022/04/14 04:31:07;;;;;;;19.10;9.10;;;;;;;15.50;38.24;101162.31;5030693;28;20046;-72
2022/04/14 04:33:34;;;;;;;18.35;9.65;;;;;;;16.26;36.94;101171.19;5023784;28;20128;-72
2022/04/14 04:36:00;;;;;;;16.05;8.93;;;;;;;15.78;37.82;101173.44;5040321;28;20128;-72
2022/04/14 04:38:27;;;;;;;17.63;8.75;;;;;;;16.32;36.79;101177.75;5050566;28;20087;-73
2022/04/14 04:40:55;;;;;;;16.38;9.60;;;;;;;16.33;36.85;101179.41;5049750;28;20114;-72
2022/04/14 04:43:21;;;;;;;18.48;9.13;;;;;;;16.26;36.92;101176.63;5048802;28;20115;-73
2022/04/14 04:45:47;;;;;;;20.02;9.77;;;;;;;16.41;36.54;101185.59;5050143;28;20048;-73
2022/04/14 04:48:14;;;;;;;23.65;9.50;;;;;;;16.51;36.39;101189.94;5049364;28;20044;-73
2022/04/14 04:50:41;;;;;;;23.15;9.25;;;;;;;16.47;36.45;101180.44;5049399;28;20052;-72
2022/04/14 04:53:07;;;;;;;16.52;9.20;;;;;;;16.33;36.81;101184.84;5050711;28;20045;-72
2022/04/14 04:55:38;;;;;;;17.77;9.20;;;;;;;16.31;36.92;101178.78;5049810;28;20045;-73
2022/04/14 04:58:04;;;;;;;17.15;9.07;;;;;;;16.25;37.12;101169.53;5050207;28;20135;-72
2022/04/14 05:00:31;;;;;;;14.00;9.15;;;;;;;15.81;38.09;101161.38;5050455;28;20559;-73
2022/04/14 05:02:57;;;;;;;18.23;9.48;;;;;;;16.13;37.38;101165.63;5050615;28;20123;-73
2022/04/14 05:05:25;;;;;;;15.50;9.18;;;;;;;16.08;38.02;101168.88;5050454;28;20405;-72
2022/04/14 05:07:52;;;;;;;19.80;9.40;;;;;;;16.00;37.63;101174.38;5049491;28;20124;-72
2022/04/14 05:10:18;;;;;;;13.63;8.50;;;;;;;16.48;37.29;101174.03;5037244;28;20141;-72
2022/04/14 05:12:44;;;;;;;17.65;8.73;;;;;;;16.25;37.75;101179.53;5030703;28;20045;-71
2022/04/14 05:15:11;;;;;;;21.30;8.68;;;;;;;16.23;37.92;101168.91;5029846;28;20101;-72
2022/04/14 05:17:37;;;;;;;18.77;8.60;;;;;;;15.40;39.60;101169.84;5030439;28;20137;-71
2022/04/14 05:20:04;;;;;;;22.02;9.30;;;;;;;16.08;38.37;101168.88;5030151;28;20073;-72
2022/04/14 05:22:31;;;;;;;23.30;8.43;;;;;;;15.75;38.93;101176.50;5029889;28;20458;-71
2022/04/14 05:24:57;;;;;;;20.98;8.90;;;;;;;15.75;39.43;101178.34;5030027;28;20045;-71
2022/04/14 05:27:24;;;;;;;14.95;8.18;;;;;;;16.05;38.91;101180.06;5029737;28;20049;-71
2022/04/14 05:29:50;;;;;;;17.70;8.15;;;;;;;16.46;37.88;101186.91;5031903;28;20046;-72
2022/04/14 05:32:17;;;;;;;20.40;8.48;;;;;;;16.32;38.13;101177.75;5033790;28;20129;-72
2022/04/14 05:34:43;;;;;;;12.65;8.43;;;;;;;16.67;37.52;101174.28;5033845;28;20454;-71
2022/04/14 05:37:09;;;;;;;17.75;7.70;;;;;;;16.73;37.44;101174.56;5027459;28;20055;-72
2022/04/14 05:39:36;;;;;;;17.95;7.68;;;;;;;16.57;37.83;101171.03;5034387;28;20120;-72
2022/04/14 05:42:03;;;;;;;18.50;8.07;;;;;;;16.69;37.33;101176.81;5033434;28;20429;-72
2022/04/14 05:44:29;;;;;;;15.93;8.02;;;;;;;16.53;37.93;101175.16;5039739;28;20294;-71
2022/04/14 05:46:55;;;;;;;19.58;8.43;;;;;;;16.82;37.38;101176.97;5033223;28;20071;-70
2022/04/14 05:49:22;;;;;;;17.77;7.68;;;;;;;16.98;37.18;101170.47;5033382;28;20053;-71
2022/04/14 05:51:48;;;;;;;20.25;7.38;;;;;;;17.30;36.51;101169.16;5032484;28;20408;-71
2022/04/14 05:54:15;;;;;;;19.42;8.00;;;;;;;17.27;36.67;101172.25;5033330;28;20113;-72
2022/04/14 05:56:42;;;;;;;12.93;8.07;;;;;;;17.36;36.54;101171.09;5040380;28;20048;-71
2022/04/14 05:59:16;;;;;;;15.25;8.18;;;;;;;17.27;36.71;101176.84;5035267;28;20514;-72
2022/04/14 06:01:46;;;;;;;19.38;9.18;;;;;;;17.26;36.69;101177.84;5033359;28;20045;-72
2022/04/14 06:04:13;;;;;;;24.55;9.85;;;;;;;17.73;36.08;101177.28;5044271;28;20440;-71
2022/04/14 06:06:39;;;;;;;29.88;8.02;;;;;;;17.36;36.61;101183.84;5054266;28;20123;-71
2022/04/14 06:09:06;;;;;;;19.23;7.32;;;;;;;17.50;36.29;101184.78;5053454;28;20149;-71
2022/04/14 06:11:32;;;;;;;20.27;7.78;;;;;;;17.95;35.83;101186.22;5053866;28;20504;-72
2022/04/14 06:13:59;;;;;;;12.68;7.05;;;;;;;17.95;35.57;101193.53;5053120;28;20467;-71
2022/04/14 06:16:25;;;;;;;16.25;7.72;;;;;;;18.28;34.73;101189.19;5053879;28;20454;-71
2022/04/14 06:18:52;;;;;;;18.60;7.60;;;;;;;18.27;34.78;101192.09;5053947;28;20366;-71
2022/04/14 06:21:18;;;;;;;23.27;8.18;;;;;;;17.74;35.77;101189.81;5053243;28;20055;-72
2022/04/14 06:23:45;;;;;;;18.45;8.30;;;;;;;18.38;34.82;101182.56;5053117;28;20045;-71
2022/04/14 06:26:11;;;;;;;19.08;8.20;;;;;;;18.43;34.76;101185.50;5053440;28;20131;-71
2022/04/14 06:28:39;;;;;;;16.88;8.20;;;;;;;18.78;34.15;101187.13;5054232;28;20060;-72
2022/04/14 06:31:05;;;;;;;22.10;8.23;;;;;;;18.80;34.31;101189.66;5053638;28;20068;-71
2022/04/14 06:33:32;;;;;;;26.23;8.70;;;;;;;19.22;33.43;101198.59;5053203;28;20524;-72
2022/04/14 06:35:59;;;;;;;17.25;8.38;;;;;;;19.53;32.76;101186.28;5053386;28;20083;-73
2022/04/14 06:38:27;;;;;;;16.88;8.18;;;;;;;19.57;32.92;101196.53;5047696;28;20095;-71
2022/04/14 06:40:54;;;;;;;20.00;8.85;;;;;;;20.05;32.05;101195.50;5052667;28;20479;-70
2022/04/14 06:43:20;;;;;;;22.70;8.52;;;;;;;20.33;31.54;101193.34;5050487;28;20053;-71
2022/04/14 06:45:47;;;;;;;25.73;8.55;;;;;;;20.17;31.72;101191.91;5053195;28;20107;-71
2022/04/14 06:48:14;;;;;;;13.25;8.25;;;;;;;20.51;30.82;101195.44;5050655;28;20512;-72
2022/04/14 06:50:41;;;;;;;20.38;8.43;;;;;;;20.59;30.93;101194.34;5052869;28;20132;-71
2022/04/14 06:53:08;;;;;;;20.13;8.80;;;;;;;20.79;30.64;101197.81;5050657;28;20132;-72
2022/04/14 06:55:36;;;;;;;19.17;8.57;;;;;;;20.91;30.29;101198.00;5051413;28;20048;-72
2022/04/14 06:58:03;;;;;;;22.88;7.95;;;;;;;21.00;30.46;101190.38;5052325;28;20124;-72
2022/04/14 07:00:30;;;;;;;18.00;8.00;;;;;;;20.76;30.71;101194.69;5052701;28;20073;-71
2022/04/14 07:02:57;;;;;;;19.02;7.53;;;;;;;21.07;30.49;101193.91;5052754;28;20072;-71
2022/04/14 07:05:24;;;;;;;17.38;8.50;;;;;;;20.47;31.06;101190.63;5051887;28;20041;-72
2022/04/14 07:07:51;;;;;;;20.33;8.07;;;;;;;21.14;30.15;101187.38;5052539;28;20087;-72
2022/04/14 07:10:18;;;;;;;24.13;8.38;;;;;;;20.69;31.21;101197.44;5051474;28;20408;-72
2022/04/14 07:12:46;;;;;;;11.38;6.43;;;;;;;21.30;30.05;101187.94;5051775;28;20179;-72
2022/04/14 07:15:13;;;;;;;15.45;8.05;;;;;;;21.37;29.72;101197.75;5052161;28;20068;-71
2022/04/14 07:17:40;;;;;;;15.98;7.63;;;;;;;21.92;29.08;101190.84;5051651;28;20414;-71
2022/04/14 07:20:10;;;;;;;18.10;6.97;;;;;;;22.39;28.57;101189.28;5036921;28;20056;-72
2022/04/14 07:22:49;;;;;;;18.88;7.70;;;;;;;22.76;27.85;101184.66;5032034;28;20056;-72
2022/04/14 07:25:24;;;;;;;20.10;7.85;;;;;;;22.13;28.66;101190.41;5036941;28;20409;-72
2022/04/14 07:27:51;;;;;;;18.13;7.97;;;;;;;21.83;29.07;101193.84;5052458;28;20111;-72
2022/04/14 07:30:18;;;;;;;22.45;8.38;;;;;;;22.18;28.73;101185.09;5052306;28;20481;-72
2022/04/14 07:32:45;;;;;;;17.58;7.90;;;;;;;22.23;28.29;101192.63;5051453;28;20071;-72
2022/04/14 07:35:13;;;;;;;20.98;8.35;;;;;;;22.75;27.60;101196.69;5036760;28;20525;-72
2022/04/14 07:37:39;;;;;;;16.17;8.00;;;;;;;23.25;27.17;101199.16;5031873;28;20107;-72
2022/04/14 07:40:07;;;;;;;15.75;7.47;;;;;;;23.49;26.53;101202.81;5032284;28;20133;-72
2022/04/14 07:42:36;;;;;;;18.60;7.82;;;;;;;23.17;27.31;101196.75;5031620;28;20485;-72
2022/04/14 07:45:04;;;;;;;15.07;7.22;;;;;;;23.34;27.02;101204.31;5032243;28;20115;-74
2022/04/14 07:47:39;;;;;;;19.63;7.70;;;;;;;23.35;26.95;101197.78;5032403;28;20067;-74
2022/04/14 07:50:06;;;;;;;21.88;8.23;;;;;;;23.98;26.08;101206.22;5032323;28;20046;-74
2022/04/14 07:52:43;;;;;;;13.02;7.28;;;;;;;24.17;25.66;101204.22;5032779;28;20398;-74
2022/04/14 07:55:10;;;;;;;18.80;7.50;;;;;;;24.43;25.33;101202.06;5032442;28;20068;-74
2022/04/14 07:57:36;;;;;;;15.10;7.38;;;;;;;24.57;25.48;101200.69;5038179;28;20052;-74
2022/04/14 08:00:05;;;;;;;14.88;6.93;;;;;;;23.68;26.54;101209.03;5047243;28;20095;-75
2022/04/14 08:02:31;;;;;;;14.93;7.07;;;;;;;23.35;27.01;101208.72;5053487;28;20448;-75
2022/04/14 08:04:58;;;;;;;13.63;6.65;;;;;;;23.37;27.02;101209.34;5053178;28;20095;-75
2022/04/14 08:07:24;;;;;;;12.48;7.38;;;;;;;24.13;26.04;101207.66;5052701;28;20045;-75
2022/04/14 08:09:51;;;;;;;16.98;7.40;;;;;;;23.19;27.43;101213.81;5051819;28;20448;-75
2022/04/14 08:12:18;;;;;;;16.40;6.35;;;;;;;23.23;27.23;101219.66;5051884;28;20136;-75
2022/04/14 08:14:44;;;;;;;13.63;6.57;;;;;;;23.58;27.06;101217.00;5044512;28;20451;-75
2022/04/14 08:17:11;;;;;;;14.05;6.43;;;;;;;23.45;27.04;101218.03;5052627;28;20041;-75
2022/04/14 08:19:40;;;;;;;19.00;6.60;;;;;;;22.99;28.00;101221.41;5050585;28;20120;-75
2022/04/14 08:22:06;;;;;;;15.82;5.90;;;;;;;23.73;27.18;101228.34;5052261;28;20098;-75
2022/04/14 08:24:34;;;;;;;13.77;5.88;;;;;;;23.68;26.77;101227.38;5051898;28;20053;-75
2022/04/14 08:27:01;;;;;;;14.05;6.07;;;;;;;23.61;27.26;101230.22;5051406;28;20177;-75
2022/04/14 08:29:27;;;;;;;10.77;5.95;;;;;;;23.80;27.10;101236.47;5052296;28;20052;-74
2022/04/14 08:31:54;;;;;;;11.00;4.47;;;;;;;24.04;26.86;101239.25;5051657;28;20045;-74
2022/04/14 08:34:20;;;;;;;6.32;4.70;;;;;;;24.12;26.77;101234.22;5052136;28;20055;-74
2022/04/14 08:36:47;;;;;;;11.57;5.30;;;;;;;24.59;26.23;101238.88;5051712;28;20064;-75
2022/04/14 08:39:15;;;;;;;7.65;4.50;;;;;;;24.47;26.38;101247.09;5052040;28;20033;-75
2022/04/14 08:41:45;;;;;;;8.55;4.65;;;;;;;24.67;26.06;101241.25;5052629;28;20071;-75
2022/04/14 08:44:15;;;;;;;13.35;4.60;;;;;;;23.65;27.64;101250.59;5052439;28;20427;-75
2022/04/14 08:46:48;;;;;;;10.95;4.40;;;;;;;24.00;27.42;101246.28;5047834;28;20116;-75
2022/04/14 08:49:16;;;;;;;9.98;3.45;;;;;;;24.10;27.17;101252.84;5057385;28;20472;-75
2022/04/14 08:51:44;;;;;;;7.18;3.58;;;;;;;23.37;28.11;101250.41;5051979;28;20511;-75
2022/04/14 08:54:13;;;;;;;7.50;3.72;;;;;;;23.46;28.21;101252.56;5052559;28;20051;-75
2022/04/14 08:56:41;;;;;;;9.00;3.60;;;;;;;23.63;27.96;101263.69;5051545;28;20102;-75
2022/04/14 08:59:12;;;;;;;8.65;4.20;;;;;;;23.38;28.16;101258.38;5052338;28;20106;-75
2022/04/14 09:01:39;;;;;;;13.13;3.90;;;;;;;23.17;28.75;101256.16;5051347;28;20041;-74
2022/04/14 09:04:06;;;;;;;9.80;4.53;;;;;;;23.00;28.80;101259.47;5047556;28;20048;-75
2022/04/14 09:06:33;;;;;;;9.35;4.47;;;;;;;23.56;28.18;101262.94;5051583;28;20128;-75
2022/04/14 09:09:00;;;;;;;10.82;4.82;;;;;;;23.39;28.44;101264.69;5051383;28;20117;-75
2022/04/14 09:11:30;;;;;;;10.65;4.35;;;;;;;23.45;28.55;101267.31;5050853;28;20459;-75
2022/04/14 09:13:59;;;;;;;13.98;4.32;;;;;;;23.68;28.43;101265.72;5049066;28;20045;-75
2022/04/14 09:16:26;;;;;;;7.75;3.30;;;;;;;23.25;29.05;101256.66;5049966;28;20111;-75
2022/04/14 09:18:54;;;;;;;10.30;3.80;;;;;;;23.71;28.43;101257.03;5051915;28;20064;-75
2022/04/14 09:21:20;;;;;;;9.60;3.58;;;;;;;23.76;28.07;101257.19;5050654;28;20072;-75
2022/04/14 09:23:54;;;;;;;6.78;3.45;;;;;;;23.81;28.12;101264.69;5051169;28;20076;-75
2022/04/14 09:26:24;;;;;;;8.95;4.13;;;;;;;23.40;28.73;101263.59;5050039;28;20072;-72
2022/04/14 09:29:01;;;;;;;10.65;3.72;;;;;;;23.84;28.41;101272.44;5049997;28;20055;-72
2022/04/14 09:31:28;;;;;;;6.45;2.95;;;;;;;24.71;27.19;101258.88;5049869;28;20127;-72
2022/04/14 09:33:55;;;;;;;8.40;2.40;;;;;;;23.78;28.42;101265.16;5049132;28;20396;-75
2022/04/14 09:36:27;;;;;;;6.13;2.35;;;;;;;24.88;27.04;101265.28;5050957;28;20120;-75
2022/04/14 09:38:57;;;;;;;6.10;2.13;;;;;;;24.35;27.71;101259.97;5049060;28;20041;-75
2022/04/14 09:41:42;;;;;;;4.10;2.55;;;;;;;24.60;27.01;101257.00;5050752;28;20048;-75
2022/04/14 09:44:10;;;;;;;5.40;2.20;;;;;;;23.68;28.64;101255.59;5051541;28;20052;-75
2022/04/14 09:46:41;;;;;;;5.70;3.33;;;;;;;23.01;29.61;101260.31;5050849;28;20452;-75
2022/04/14 09:49:09;;;;;;;4.43;2.90;;;;;;;23.40;29.39;101247.16;5050469;28;20052;-75
2022/04/14 09:51:47;;;;;;;6.28;2.55;;;;;;;23.77;28.55;101258.03;5051231;28;20048;-75
2022/04/14 09:54:16;;;;;;;7.20;2.50;;;;;;;23.47;29.24;101256.16;5051433;28;20051;-75
2022/04/14 09:56:49;;;;;;;7.53;2.50;;;;;;;22.90;30.04;101252.88;5050588;28;20076;-74
2022/04/14 09:59:17;;;;;;;3.95;2.58;;;;;;;23.96;28.52;101260.44;5047373;28;20562;-74
2022/04/14 10:01:45;;;;;;;5.72;2.70;;;;;;;23.16;29.66;101252.59;5050593;28;20049;-74
2022/04/14 10:04:34;;;;;;;6.47;2.58;;;;;;;22.65;30.96;101256.53;5050339;28;20447;-75
2022/04/14 10:07:05;;;;;;;8.38;3.03;;;;;;;22.36;31.59;101251.78;5048245;28;20136;-74
2022/04/14 10:09:33;;;;;;;3.95;2.60;;;;;;;22.94;30.67;101259.56;5049558;28;20141;-74
2022/04/14 10:12:00;;;;;;;5.80;2.42;;;;;;;22.68;30.81;101263.47;5066885;28;20430;-74
2022/04/14 10:14:27;;;;;;;5.93;2.83;;;;;;;22.02;32.20;101256.75;5050436;28;20111;-74
2022/04/14 10:16:54;;;;;;;7.22;2.75;;;;;;;22.58;31.01;101261.25;5053917;28;20080;-74
2022/04/14 10:19:21;;;;;;;7.15;2.85;;;;;;;22.41;31.92;101257.41;5054397;28;20072;-74
2022/04/14 10:21:48;;;;;;;7.43;3.20;;;;;;;22.18;32.28;101272.53;5055148;28;20140;-74
2022/04/14 10:24:16;;;;;;;9.38;3.50;;;;;;;22.19;32.21;101262.47;5054749;28;20083;-74
2022/04/14 10:26:43;;;;;;;10.15;5.00;;;;;;;22.15;32.23;101264.81;5054233;28;20136;-75
2022/04/14 10:29:12;;;;;;;11.75;5.07;;;;;;;21.99;32.43;101268.09;5050934;28;20053;-75
2022/04/14 10:31:40;;;;;;;8.77;3.42;;;;;;;22.51;31.96;101265.97;5051789;28;20071;-74
2022/04/14 10:34:07;;;;;;;4.82;2.47;;;;;;;22.02;32.35;101268.50;5050657;28;20049;-74
2022/04/14 10:36:38;;;;;;;4.20;2.30;;;;;;;22.31;32.20;101272.41;5053263;28;20361;-74
2022/04/14 10:39:05;;;;;;;7.88;2.00;;;;;;;23.04;30.99;101262.59;5053703;28;20045;-75
2022/04/14 10:41:38;;;;;;;7.57;2.15;;;;;;;22.91;31.45;101258.13;5053420;28;20482;-75
2022/04/14 10:44:05;;;;;;;4.63;1.90;;;;;;;22.47;31.88;101253.81;5053456;28;20131;-75
2022/04/14 10:46:41;;;;;;;5.47;1.27;;;;;;;22.05;32.75;101262.59;5053339;28;20456;-75
2022/04/14 10:49:13;;;;;;;11.32;1.40;;;;;;;22.01;32.80;101258.63;5052763;28;20127;-75
2022/04/14 10:51:40;;;;;;;2.17;1.00;;;;;;;22.68;31.08;101272.50;5053508;28;20045;-74
2022/04/14 10:54:11;;;;;;;1.08;0.73;;;;;;;22.56;31.26;101272.41;5052234;28;20095;-74
2022/04/14 10:56:38;;;;;;;5.25;1.00;;;;;;;22.33;32.07;101269.47;5054308;28;20076;-74
2022/04/14 10:59:05;;;;;;;3.25;1.00;;;;;;;21.76;32.48;101274.97;5054381;28;20455;-74
2022/04/14 11:01:50;;;;;;;2.25;0.80;;;;;;;22.42;31.45;101278.22;5054104;28;20057;-74
2022/04/14 11:04:48;;;;;;;3.95;1.05;;;;;;;22.09;32.28;101290.31;5053352;28;20048;-74
2022/04/14 11:07:22;;;;;;;3.33;1.30;;;;;;;22.43;31.85;101278.00;5049087;28;20077;-75
2022/04/14 11:09:59;;;;;;;4.38;1.48;;;;;;;21.77;33.28;101293.03;5033572;28;20057;-75
2022/04/14 11:12:39;;;;;;;8.65;2.10;;;;;;;21.69;33.32;101293.28;5036773;28;20057;-74
2022/04/14 11:15:08;;;;;;;4.65;2.00;;;;;;;21.51;33.43;101301.41;5053634;28;20053;-74
2022/04/14 11:17:37;;;;;;;3.53;2.00;;;;;;;21.60;33.42;101300.91;5053871;28;20068;-74
2022/04/14 11:20:19;;;;;;;2.70;1.60;;;;;;;21.51;33.92;101313.16;5052977;28;20163;-74
2022/04/14 11:23:04;;;;;;;4.80;1.95;;;;;;;21.93;32.91;101307.22;5053953;28;20131;-74
2022/04/14 11:25:43;;;;;;;3.95;1.20;;;;;;;21.67;33.33;101302.75;5053053;28;20127;-74
2022/04/14 11:28:36;;;;;;;3.60;1.30;;;;;;;21.33;33.92;101302.13;5051761;28;20115;-74